createdAt,value
2023-04-25T00:00:01.193Z,101012.81
2023-04-25T00:02:29.324Z,101010.34
2023-04-25T00:04:59.241Z,101009.34
2023-04-25T00:07:28.818Z,101010.78
2023-04-25T00:09:56.599Z,101013.28
2023-04-25T00:12:24.836Z,101010.78
2023-04-25T00:14:53.801Z,101021.25
2023-04-25T00:17:22.850Z,101021.25
2023-04-25T00:19:50.851Z,101014.47
2023-04-25T00:22:18.836Z,101010.31
2023-04-25T00:24:47.957Z,101008.22
2023-04-25T00:27:16.223Z,101018.38
2023-04-25T00:29:43.949Z,101009.59
2023-04-25T00:32:11.975Z,101012.66
2023-04-25T00:34:39.690Z,101020.53
2023-04-25T00:37:07.500Z,101025.97
2023-04-25T00:39:35.344Z,101016.78
2023-04-25T00:42:05.148Z,101020.31
2023-04-25T00:44:33.945Z,101023.81
2023-04-25T00:47:03.826Z,101017.59
2023-04-25T00:49:31.780Z,101019.13
2023-04-25T00:51:59.735Z,101019.31
2023-04-25T00:54:27.741Z,101022.47
2023-04-25T00:56:56.033Z,101019.31
2023-04-25T00:59:26.174Z,101022.75
2023-04-25T01:01:54.412Z,101022.75
2023-04-25T01:04:22.409Z,101030.66
2023-04-25T01:06:50.925Z,101023.47
2023-04-25T01:09:18.803Z,101020.88
2023-04-25T01:11:46.573Z,101025.28
2023-04-25T01:14:14.339Z,101028.00
2023-04-25T01:16:44.261Z,101026.44
2023-04-25T01:19:13.284Z,101018.28
2023-04-25T01:21:42.792Z,101026.16
2023-04-25T01:24:10.992Z,101025.31
2023-04-25T01:26:41.068Z,101034.31
2023-04-25T01:29:09.930Z,101035.78
2023-04-25T01:31:38.785Z,101037.19
2023-04-25T01:34:07.354Z,101042.47
2023-04-25T01:36:36.123Z,101047.97
2023-04-25T01:39:05.486Z,101048.38
2023-04-25T01:41:33.385Z,101055.78
2023-04-25T01:44:01.235Z,101062.78
2023-04-25T01:46:29.714Z,101056.25
2023-04-25T01:48:57.505Z,101063.88
2023-04-25T01:51:25.668Z,101069.78
2023-04-25T01:53:54.336Z,101070.13
2023-04-25T01:56:23.588Z,101067.88
2023-04-25T01:58:51.568Z,101071.91
2023-04-25T02:01:22.074Z,101069.22
2023-04-25T02:04:06.740Z,101077.03
2023-04-25T02:06:37.864Z,101073.44
2023-04-25T02:09:05.734Z,101072.91
2023-04-25T02:11:35.153Z,101064.97
2023-04-25T02:14:29.805Z,101074.31
2023-04-25T02:17:08.285Z,101072.09
2023-04-25T02:19:36.167Z,101079.00
2023-04-25T02:22:04.018Z,101077.53
2023-04-25T02:24:32.870Z,101078.34
2023-04-25T02:27:02.403Z,101089.06
2023-04-25T02:29:31.686Z,101088.88
2023-04-25T02:31:59.549Z,101087.66
2023-04-25T02:34:28.013Z,101096.75
2023-04-25T02:36:56.063Z,101096.44
2023-04-25T02:39:26.056Z,101099.50
2023-04-25T02:41:54.606Z,101095.69
2023-04-25T02:44:24.539Z,101093.66
2023-04-25T02:46:52.538Z,101098.25
2023-04-25T02:49:20.411Z,101097.19
2023-04-25T02:51:48.135Z,101102.56
2023-04-25T02:54:16.105Z,101110.59
2023-04-25T02:56:48.342Z,101111.25
2023-04-25T02:59:21.875Z,101113.00
2023-04-25T03:01:51.408Z,101114.59
2023-04-25T03:04:20.163Z,101108.22
2023-04-25T03:06:49.145Z,101109.00
2023-04-25T03:09:16.945Z,101107.19
2023-04-25T03:11:46.533Z,101111.25
2023-04-25T03:14:14.967Z,101110.13
2023-04-25T03:16:42.727Z,101114.34
2023-04-25T03:19:12.203Z,101115.69
2023-04-25T03:21:40.148Z,101109.16
2023-04-25T03:24:08.304Z,101111.75
2023-04-25T03:26:36.219Z,101111.59
2023-04-25T03:29:04.236Z,101115.09
2023-04-25T03:31:32.995Z,101123.84
2023-04-25T03:34:01.159Z,101124.91
2023-04-25T03:36:30.365Z,101134.09
2023-04-25T03:38:58.263Z,101131.34
2023-04-25T03:41:26.745Z,101136.00
2023-04-25T03:43:59.192Z,101128.03
2023-04-25T03:46:28.544Z,101127.72
2023-04-25T03:48:56.399Z,101127.06
2023-04-25T03:51:32.437Z,101132.31
2023-04-25T03:54:00.477Z,101125.97
2023-04-25T03:56:57.320Z,101130.19
2023-04-25T03:59:28.637Z,101138.09
2023-04-25T04:01:57.319Z,101140.56
2023-04-25T04:04:25.345Z,101134.97
2023-04-25T04:06:54.899Z,101137.06
2023-04-25T04:09:28.528Z,101130.66
2023-04-25T04:11:57.744Z,101135.59
2023-04-25T04:14:25.674Z,101136.91
2023-04-25T04:16:53.478Z,101149.59
2023-04-25T04:19:21.468Z,101150.50
2023-04-25T04:21:58.800Z,101149.34
2023-04-25T04:24:28.457Z,101151.94
2023-04-25T04:27:02.864Z,101156.75
2023-04-25T04:29:38.871Z,101161.44
2023-04-25T04:32:14.746Z,101164.19
2023-04-25T04:34:43.204Z,101160.16
2023-04-25T04:37:15.709Z,101152.19
2023-04-25T04:39:44.670Z,101162.69
2023-04-25T04:42:32.692Z,101165.53
2023-04-25T04:45:30.074Z,101170.34
2023-04-25T04:48:22.796Z,101169.91
2023-04-25T04:51:22.980Z,101181.63
2023-04-25T04:54:05.433Z,101184.41
2023-04-25T04:56:57.300Z,101188.97
2023-04-25T04:59:41.618Z,101192.69
2023-04-25T05:02:28.232Z,101200.28
2023-04-25T05:05:17.655Z,101197.97
2023-04-25T05:08:01.174Z,101193.81
2023-04-25T05:10:42.934Z,101201.97
2023-04-25T05:13:34.099Z,101203.34
2023-04-25T05:16:15.549Z,101208.31
2023-04-25T05:19:09.609Z,101214.56
2023-04-25T05:22:06.401Z,101214.63
2023-04-25T05:24:55.196Z,101214.63
2023-04-25T05:27:40.514Z,101223.97
2023-04-25T05:30:26.929Z,101225.78
2023-04-25T05:33:05.200Z,101221.06
2023-04-25T05:35:34.015Z,101218.94
2023-04-25T05:38:02.348Z,101217.66
2023-04-25T05:40:50.222Z,101224.66
2023-04-25T05:43:36.122Z,101218.06
2023-04-25T05:46:21.785Z,101223.59
2023-04-25T05:49:03.742Z,101228.06
2023-04-25T05:51:54.533Z,101229.44
2023-04-25T05:54:39.017Z,101238.06
2023-04-25T05:57:07.151Z,101232.13
2023-04-25T05:59:37.024Z,101225.03
2023-04-25T06:02:05.496Z,101227.19
2023-04-25T06:04:35.620Z,101227.38
2023-04-25T06:07:03.875Z,101227.50
2023-04-25T06:09:32.157Z,101224.75
2023-04-25T06:12:00.019Z,101218.81
2023-04-25T06:14:29.574Z,101224.16
2023-04-25T06:16:59.128Z,101221.94
2023-04-25T06:19:28.476Z,101213.25
2023-04-25T06:21:56.431Z,101208.63
2023-04-25T06:24:24.591Z,101210.59
2023-04-25T06:26:52.596Z,101207.28
2023-04-25T06:29:20.881Z,101207.19
2023-04-25T06:31:49.197Z,101206.75
2023-04-25T06:34:18.321Z,101198.50
2023-04-25T06:36:46.460Z,101211.03
2023-04-25T06:39:17.415Z,101194.22
2023-04-25T06:41:45.364Z,101204.13
2023-04-25T06:44:32.994Z,101203.84
2023-04-25T06:47:01.290Z,101200.19
2023-04-25T06:49:31.592Z,101209.06
2023-04-25T06:51:59.790Z,101207.06
2023-04-25T06:54:28.213Z,101214.31
2023-04-25T06:57:03.568Z,101218.09
2023-04-25T06:59:31.541Z,101219.13
2023-04-25T07:01:59.568Z,101214.44
2023-04-25T07:04:28.293Z,101214.53
2023-04-25T07:07:01.870Z,101214.84
2023-04-25T07:09:40.071Z,101217.66
2023-04-25T07:12:08.428Z,101215.50
2023-04-25T07:14:36.511Z,101224.28
2023-04-25T07:17:07.511Z,101226.72
2023-04-25T07:19:37.936Z,101234.63
2023-04-25T07:22:09.004Z,101227.63
2023-04-25T07:24:39.241Z,101229.63
2023-04-25T07:27:07.596Z,101225.47
2023-04-25T07:29:47.692Z,101222.25
2023-04-25T07:32:15.889Z,101219.84
2023-04-25T07:34:44.389Z,101220.34
2023-04-25T07:37:15.058Z,101219.78
2023-04-25T07:39:57.629Z,101228.66
2023-04-25T07:42:25.672Z,101227.50
2023-04-25T07:44:53.686Z,101235.38
2023-04-25T07:47:21.493Z,101228.22
2023-04-25T07:49:49.451Z,101230.91
2023-04-25T07:52:18.877Z,101230.69
2023-04-25T07:54:53.025Z,101241.75
2023-04-25T07:57:26.751Z,101240.66
2023-04-25T07:59:56.261Z,101244.66
2023-04-25T08:02:24.504Z,101242.50
2023-04-25T08:04:52.568Z,101251.06
2023-04-25T08:07:23.304Z,101249.91
2023-04-25T08:09:54.532Z,101248.16
2023-04-25T08:12:30.577Z,101251.53
2023-04-25T08:14:59.699Z,101252.09
2023-04-25T08:17:32.131Z,101252.53
2023-04-25T08:20:00.825Z,101253.72
2023-04-25T08:22:32.713Z,101257.19
2023-04-25T08:25:20.989Z,101248.38
2023-04-25T08:27:49.328Z,101245.53
2023-04-25T08:30:18.812Z,101248.13
2023-04-25T08:32:47.626Z,101261.38
2023-04-25T08:35:38.191Z,101269.16
2023-04-25T08:38:08.060Z,101261.91
2023-04-25T08:40:40.183Z,101272.56
2023-04-25T08:43:20.441Z,101280.41
2023-04-25T08:45:49.214Z,101282.38
2023-04-25T08:48:35.722Z,101281.41
2023-04-25T08:53:43.695Z,101293.09
2023-04-25T08:56:14.164Z,101296.78
2023-04-25T08:58:42.703Z,101294.91
2023-04-25T09:01:10.598Z,101307.41
2023-04-25T09:03:48.297Z,101307.13
2023-04-25T09:06:17.258Z,101317.25
2023-04-25T09:08:46.646Z,101313.25
2023-04-25T09:11:15.680Z,101313.75
2023-04-25T09:13:43.610Z,101308.47
2023-04-25T09:16:23.759Z,101301.94
2023-04-25T09:19:38.049Z,101309.91
2023-04-25T09:22:12.992Z,101307.53
2023-04-25T09:24:46.995Z,101297.38
2023-04-25T09:27:21.446Z,101314.81
2023-04-25T09:29:59.263Z,101313.44
2023-04-25T09:32:28.757Z,101309.91
2023-04-25T09:34:59.552Z,101300.84
2023-04-25T09:37:31.598Z,101323.41
2023-04-25T09:40:20.575Z,101326.84
2023-04-25T09:43:04.030Z,101328.31
2023-04-25T09:45:32.305Z,101339.81
2023-04-25T09:48:05.292Z,101336.34
2023-04-25T09:50:33.780Z,101337.16
2023-04-25T09:53:09.451Z,101332.94
2023-04-25T09:55:59.338Z,101330.53
2023-04-25T09:58:33.112Z,101338.19
2023-04-25T10:01:04.015Z,101347.16
2023-04-25T10:03:42.802Z,101351.13
2023-04-25T10:06:36.679Z,101349.53
2023-04-25T10:09:04.958Z,101339.28
2023-04-25T10:11:34.636Z,101337.28
2023-04-25T10:14:02.616Z,101351.13
2023-04-25T10:16:31.523Z,101340.78
2023-04-25T10:18:59.799Z,101347.66
2023-04-25T10:21:31.461Z,101355.03
2023-04-25T10:23:59.808Z,101350.16
2023-04-25T10:26:29.567Z,101352.94
2023-04-25T10:29:01.955Z,101349.84
2023-04-25T10:31:31.921Z,101339.06
2023-04-25T10:34:01.657Z,101336.94
2023-04-25T10:36:34.050Z,101328.94
2023-04-25T10:39:07.897Z,101334.97
2023-04-25T10:41:48.334Z,101339.34
2023-04-25T10:44:17.786Z,101335.72
2023-04-25T10:46:46.906Z,101330.50
2023-04-25T10:49:31.028Z,101333.44
2023-04-25T10:52:19.677Z,101348.31
2023-04-25T10:54:53.285Z,101351.44
2023-04-25T10:57:38.028Z,101389.75
2023-04-25T11:00:14.214Z,101396.91
2023-04-25T11:02:48.112Z,101408.22
2023-04-25T11:05:25.843Z,101404.25
2023-04-25T11:10:43.421Z,101410.66
2023-04-25T11:13:11.110Z,101421.91
2023-04-25T11:14:38.018Z,101403.72
2023-04-25T11:15:41.214Z,101414.75
2023-04-25T11:18:09.239Z,101419.72
2023-04-25T11:20:36.965Z,101425.31
2023-04-25T11:25:33.729Z,101426.59
2023-04-25T11:28:04.043Z,101411.13
2023-04-25T11:30:32.400Z,101409.03
2023-04-25T11:33:03.823Z,101414.50
2023-04-25T11:35:31.689Z,101427.72
2023-04-25T11:37:59.622Z,101414.13
2023-04-25T11:40:27.633Z,101419.13
2023-04-25T11:42:55.662Z,101423.81
2023-04-25T11:45:25.284Z,101428.09
2023-04-25T11:47:54.166Z,101427.16
2023-04-25T11:50:23.313Z,101436.19
2023-04-25T11:52:51.631Z,101423.88
2023-04-25T11:55:21.485Z,101438.44
2023-04-25T11:57:51.542Z,101455.97
2023-04-25T12:00:21.295Z,101458.16
2023-04-25T12:02:53.379Z,101468.50
2023-04-25T12:07:56.398Z,101466.03
2023-04-25T12:10:26.566Z,101458.66
2023-04-25T12:12:54.879Z,101460.56
2023-04-25T12:15:28.046Z,101460.63
2023-04-25T12:17:56.597Z,101456.94
2023-04-25T12:20:27.116Z,101463.25
2023-04-25T12:22:55.699Z,101452.34
2023-04-25T12:25:36.782Z,101452.53
2023-04-25T12:28:15.390Z,101446.56
2023-04-25T12:30:58.938Z,101445.09
2023-04-25T12:33:27.200Z,101432.47
2023-04-25T12:35:56.947Z,101417.00
2023-04-25T12:38:26.809Z,101404.81
2023-04-25T12:40:55.360Z,101399.00
2023-04-25T12:43:23.796Z,101399.63
2023-04-25T12:45:52.336Z,101391.19
2023-04-25T12:48:20.542Z,101390.25
2023-04-25T12:50:49.902Z,101394.84
2023-04-25T12:53:19.415Z,101388.19
2023-04-25T12:55:48.238Z,101384.59
2023-04-25T12:58:16.272Z,101404.34
2023-04-25T13:00:44.175Z,101404.22
2023-04-25T13:03:13.466Z,101412.78
2023-04-25T13:05:42.290Z,101418.88
2023-04-25T13:08:10.620Z,101419.28
2023-04-25T13:10:40.200Z,101442.69
2023-04-25T13:13:08.441Z,101450.91
2023-04-25T13:15:36.393Z,101460.81
2023-04-25T13:18:05.252Z,101469.84
2023-04-25T13:20:33.343Z,101470.00
2023-04-25T13:23:02.704Z,101477.72
2023-04-25T13:25:30.829Z,101469.63
2023-04-25T13:28:00.157Z,101459.66
2023-04-25T13:30:28.090Z,101456.00
2023-04-25T13:32:57.263Z,101453.81
2023-04-25T13:35:25.570Z,101445.03
2023-04-25T13:37:53.346Z,101438.81
2023-04-25T13:40:22.009Z,101427.69
2023-04-25T13:42:51.940Z,101414.78
2023-04-25T13:45:21.405Z,101415.06
2023-04-25T13:47:49.359Z,101411.59
2023-04-25T13:50:17.699Z,101414.28
2023-04-25T13:52:45.944Z,101422.78
2023-04-25T13:55:14.135Z,101424.94
2023-04-25T13:57:42.066Z,101423.84
2023-04-25T14:00:10.935Z,101429.78
2023-04-25T14:02:40.677Z,101416.06
2023-04-25T14:05:10.202Z,101414.53
2023-04-25T14:07:38.534Z,101417.41
2023-04-25T14:10:07.911Z,101419.75
2023-04-25T14:12:36.158Z,101401.75
2023-04-25T14:15:04.346Z,101402.78
2023-04-25T14:17:32.106Z,101397.31
2023-04-25T14:20:01.411Z,101411.31
2023-04-25T14:22:29.088Z,101413.94
2023-04-25T14:24:57.166Z,101406.53
2023-04-25T14:27:26.724Z,101400.78
2023-04-25T14:29:56.441Z,101403.47
2023-04-25T14:32:24.399Z,101395.47
2023-04-25T14:34:52.370Z,101401.81
2023-04-25T14:37:22.120Z,101406.09
2023-04-25T14:39:49.926Z,101414.69
2023-04-25T14:42:18.031Z,101414.47
2023-04-25T14:44:46.129Z,101452.50
2023-04-25T14:47:14.001Z,101478.44
2023-04-25T14:49:41.910Z,101471.94
2023-04-25T14:52:09.645Z,101478.00
2023-04-25T14:54:38.772Z,101470.00
2023-04-25T14:57:06.791Z,101468.47
2023-04-25T14:59:34.940Z,101467.38
2023-04-25T15:02:03.268Z,101463.53
2023-04-25T15:04:32.047Z,101458.78
2023-04-25T15:07:00.144Z,101452.41
2023-04-25T15:09:29.649Z,101454.00
2023-04-25T15:11:59.365Z,101447.00
2023-04-25T15:14:27.459Z,101460.03
2023-04-25T15:16:55.420Z,101452.19
2023-04-25T15:19:23.314Z,101467.06
2023-04-25T15:21:51.206Z,101475.16
2023-04-25T15:24:19.127Z,101472.28
2023-04-25T15:26:47.376Z,101466.88
2023-04-25T15:29:16.512Z,101471.03
2023-04-25T15:31:44.412Z,101458.69
2023-04-25T15:34:12.479Z,101467.06
2023-04-25T15:36:40.427Z,101469.63
2023-04-25T15:39:08.200Z,101450.50
2023-04-25T15:41:36.197Z,101462.81
2023-04-25T15:44:04.114Z,101461.94
2023-04-25T15:46:33.459Z,101449.47
2023-04-25T15:49:01.336Z,101437.66
2023-04-25T15:51:29.049Z,101433.03
2023-04-25T15:53:57.485Z,101430.91
2023-04-25T15:56:25.209Z,101436.28
2023-04-25T15:58:55.246Z,101440.09
2023-04-25T16:01:24.657Z,101452.00
2023-04-25T16:03:54.277Z,101458.53
2023-04-25T16:06:22.366Z,101446.13
2023-04-25T16:08:50.147Z,101467.00
2023-04-25T16:11:19.534Z,101476.41
2023-04-25T16:13:47.284Z,101491.84
2023-04-25T16:16:15.245Z,101479.88
2023-04-25T16:18:43.267Z,101466.56
2023-04-25T16:21:16.993Z,101463.88
2023-04-25T16:23:45.425Z,101466.94
2023-04-25T16:26:13.232Z,101483.25
2023-04-25T16:28:41.174Z,101483.25
2023-04-25T16:31:09.301Z,101485.38
2023-04-25T16:33:37.068Z,101492.91
2023-04-25T16:36:05.466Z,101508.47
2023-04-25T16:38:34.623Z,101504.44
2023-04-25T16:41:02.622Z,101509.25
2023-04-25T16:43:30.471Z,101503.25
2023-04-25T16:45:58.402Z,101500.03
2023-04-25T16:48:26.312Z,101499.03
2023-04-25T16:50:54.234Z,101506.75
2023-04-25T16:53:23.530Z,101507.28
2023-04-25T16:55:52.910Z,101514.47
2023-04-25T16:58:21.132Z,101508.84
2023-04-25T17:00:49.031Z,101506.63
2023-04-25T17:03:17.150Z,101514.19
2023-04-25T17:05:44.989Z,101510.25
2023-04-25T17:08:12.869Z,101512.00
2023-04-25T17:10:40.729Z,101516.75
2023-04-25T17:13:09.889Z,101534.38
2023-04-25T17:15:37.742Z,101535.06
2023-04-25T17:18:06.060Z,101534.16
2023-04-25T17:20:33.988Z,101522.00
2023-04-25T17:23:02.193Z,101530.66
2023-04-25T17:25:30.058Z,101539.53
2023-04-25T17:27:57.961Z,101541.34
2023-04-25T17:30:27.568Z,101542.72
2023-04-25T17:32:55.518Z,101534.31
2023-04-25T17:35:23.308Z,101547.94
2023-04-25T17:37:51.489Z,101536.06
2023-04-25T17:40:20.232Z,101545.34
2023-04-25T17:42:48.017Z,101549.13
2023-04-25T17:45:15.742Z,101560.09
2023-04-25T17:47:45.719Z,101560.78
2023-04-25T17:50:16.525Z,101559.84
2023-04-25T17:52:45.841Z,101561.13
2023-04-25T17:55:13.589Z,101554.94
2023-04-25T17:57:41.385Z,101566.63
2023-04-25T18:00:11.718Z,101564.47
2023-04-25T18:02:47.481Z,101584.09
2023-04-25T18:05:15.786Z,101576.69
2023-04-25T18:07:43.790Z,101585.25
2023-04-25T18:10:12.796Z,101588.31
2023-04-25T18:12:40.946Z,101598.50
2023-04-25T18:15:10.322Z,101597.34
2023-04-25T18:17:40.527Z,101603.81
2023-04-25T18:20:15.394Z,101607.38
2023-04-25T18:22:44.411Z,101612.56
2023-04-25T18:25:13.708Z,101621.44
2023-04-25T18:27:42.963Z,101624.53
2023-04-25T18:30:12.155Z,101630.16
2023-04-25T18:32:40.053Z,101630.88
2023-04-25T18:35:10.011Z,101631.75
2023-04-25T18:37:41.001Z,101637.78
2023-04-25T18:40:13.710Z,101640.06
2023-04-25T18:42:41.644Z,101644.81
2023-04-25T18:45:10.654Z,101643.38
2023-04-25T18:47:38.601Z,101647.69
2023-04-25T18:50:08.137Z,101648.88
2023-04-25T18:52:35.929Z,101644.44
2023-04-25T18:55:05.785Z,101653.00
2023-04-25T18:57:33.646Z,101668.16
2023-04-25T19:00:06.487Z,101667.50
2023-04-25T19:02:35.620Z,101658.91
2023-04-25T19:05:03.553Z,101677.69
2023-04-25T19:07:32.402Z,101683.00
2023-04-25T19:10:00.262Z,101686.94
2023-04-25T19:12:29.407Z,101694.50
2023-04-25T19:14:57.437Z,101695.09
2023-04-25T19:17:25.311Z,101688.16
2023-04-25T19:19:53.077Z,101699.03
2023-04-25T19:22:21.146Z,101689.53
2023-04-25T19:24:53.014Z,101699.25
2023-04-25T19:27:32.273Z,101695.25
2023-04-25T19:30:07.864Z,101694.69
2023-04-25T19:32:36.010Z,101709.88
2023-04-25T19:35:04.799Z,101700.31
2023-04-25T19:37:32.611Z,101710.63
2023-04-25T19:40:00.441Z,101711.81
2023-04-25T19:42:28.148Z,101711.94
2023-04-25T19:44:57.738Z,101707.50
2023-04-25T19:47:27.548Z,101711.03
2023-04-25T19:49:55.408Z,101717.59
2023-04-25T19:52:23.287Z,101718.72
2023-04-25T19:54:51.228Z,101713.97
2023-04-25T19:57:19.091Z,101711.41
2023-04-25T19:59:48.115Z,101710.84
2023-04-25T20:02:18.423Z,101721.31
2023-04-25T20:04:46.173Z,101730.47
2023-04-25T20:07:15.491Z,101737.47
2023-04-25T20:09:43.244Z,101733.88
2023-04-25T20:12:11.798Z,101734.34
2023-04-25T20:14:39.566Z,101732.47
2023-04-25T20:17:07.839Z,101745.75
2023-04-25T20:19:37.066Z,101744.44
2023-04-25T20:22:05.117Z,101748.66
2023-04-25T20:24:33.477Z,101752.91
2023-04-25T20:27:01.440Z,101750.47
2023-04-25T20:29:29.224Z,101757.22
2023-04-25T20:31:56.994Z,101764.22
2023-04-25T20:34:25.359Z,101764.09
2023-04-25T20:36:56.087Z,101756.25
2023-04-25T20:39:23.876Z,101764.56
2023-04-25T20:41:51.638Z,101769.09
2023-04-25T20:44:22.574Z,101773.56
2023-04-25T20:46:51.447Z,101771.25
2023-04-25T20:49:19.231Z,101774.22
2023-04-25T20:51:47.631Z,101774.47
2023-04-25T20:54:17.364Z,101774.53
2023-04-25T20:56:45.610Z,101771.38
2023-04-25T20:59:13.575Z,101775.94
2023-04-25T21:01:41.260Z,101771.84
2023-04-25T21:04:09.398Z,101772.94
2023-04-25T21:06:37.269Z,101774.78
2023-04-25T21:09:07.064Z,101782.16
2023-04-25T21:11:36.508Z,101787.75
2023-04-25T21:14:05.229Z,101786.16
2023-04-25T21:16:35.275Z,101794.25
2023-04-25T21:19:03.571Z,101787.09
2023-04-25T21:21:32.152Z,101793.50
2023-04-25T21:24:00.156Z,101803.72
2023-04-25T21:26:27.914Z,101808.22
2023-04-25T21:28:57.022Z,101805.88
2023-04-25T21:31:25.221Z,101818.78
2023-04-25T21:33:52.908Z,101805.19
2023-04-25T21:36:20.645Z,101814.31
2023-04-25T21:38:48.340Z,101814.44
2023-04-25T21:41:16.437Z,101816.19
2023-04-25T21:43:45.078Z,101825.19
2023-04-25T21:48:45.298Z,101821.72
2023-04-25T21:51:12.982Z,101821.66
2023-04-25T21:53:42.123Z,101826.56
2023-04-25T21:56:10.740Z,101829.19
2023-04-25T21:58:38.484Z,101832.09
2023-04-25T22:01:06.338Z,101836.06
2023-04-25T22:03:35.794Z,101836.53
2023-04-25T22:06:04.100Z,101837.44
2023-04-25T22:08:31.852Z,101838.75
2023-04-25T22:11:00.544Z,101844.22
2023-04-25T22:13:30.500Z,101846.63
2023-04-25T22:15:59.007Z,101843.97
2023-04-25T22:18:26.686Z,101847.84
2023-04-25T22:20:55.800Z,101853.28
2023-04-25T22:23:24.007Z,101854.16
2023-04-25T22:25:52.024Z,101857.72
2023-04-25T22:28:20.554Z,101853.19
2023-04-25T22:30:48.377Z,101857.84
2023-04-25T22:33:16.918Z,101871.28
2023-04-25T22:35:44.616Z,101867.75
2023-04-25T22:38:13.744Z,101868.75
2023-04-25T22:40:41.871Z,101866.50
2023-04-25T22:43:09.541Z,101871.63
2023-04-25T22:45:37.612Z,101886.03
2023-04-25T22:48:05.989Z,101874.34
2023-04-25T22:50:33.677Z,101880.72
2023-04-25T22:53:01.622Z,101877.78
2023-04-25T22:55:31.376Z,101880.47
2023-04-25T22:57:59.084Z,101879.50
2023-04-25T23:00:28.958Z,101886.84
2023-04-25T23:02:57.329Z,101891.72
2023-04-25T23:05:25.400Z,101900.44
2023-04-25T23:07:53.229Z,101891.66
2023-04-25T23:10:20.893Z,101884.66
2023-04-25T23:12:50.385Z,101884.66
2023-04-25T23:15:18.186Z,101889.94
2023-04-25T23:17:46.426Z,101890.03
2023-04-25T23:20:14.660Z,101892.75
2023-04-25T23:22:42.622Z,101890.16
2023-04-25T23:25:10.801Z,101887.75
2023-04-25T23:27:38.590Z,101888.59
2023-04-25T23:30:10.182Z,101894.97
2023-04-25T23:32:38.007Z,101886.19
2023-04-25T23:35:06.928Z,101893.31
2023-04-25T23:37:35.162Z,101898.16
2023-04-25T23:40:08.088Z,101897.03
2023-04-25T23:42:36.045Z,101902.44
2023-04-25T23:45:05.168Z,101900.63
2023-04-25T23:47:34.400Z,101897.06
2023-04-25T23:50:02.348Z,101900.66
2023-04-25T23:52:30.106Z,101903.19
2023-04-25T23:54:57.979Z,101909.59
2023-04-25T23:57:25.886Z,101908.72
2023-04-25T23:59:53.718Z,101910.53
